sensor_id;sensor_type;location;lat;lon;timestamp;P1;durP1;ratioP1;P2;durP2;ratioP2
18338;SDS011;9295;44.484;11.240;2023-11-19T00:00:32;3.90;;;2.60;;
18338;SDS011;9295;44.484;11.240;2023-11-19T00:02:59;6.43;;;2.90;;
18338;SDS011;9295;44.484;11.240;2023-11-19T00:05:28;4.07;;;2.77;;
18338;SDS011;9295;44.484;11.240;2023-11-19T00:07:57;7.07;;;3.13;;
18338;SDS011;9295;44.484;11.240;2023-11-19T00:10:26;7.00;;;2.77;;
18338;SDS011;9295;44.484;11.240;2023-11-19T00:12:54;8.30;;;3.60;;
18338;SDS011;9295;44.484;11.240;2023-11-19T00:15:25;6.57;;;2.83;;
18338;SDS011;9295;44.484;11.240;2023-11-19T00:17:53;9.00;;;3.33;;
18338;SDS011;9295;44.484;11.240;2023-11-19T00:20:26;7.13;;;3.70;;
18338;SDS011;9295;44.484;11.240;2023-11-19T00:22:55;8.77;;;4.03;;
18338;SDS011;9295;44.484;11.240;2023-11-19T00:25:24;6.33;;;3.83;;
18338;SDS011;9295;44.484;11.240;2023-11-19T00:27:53;8.10;;;4.10;;
18338;SDS011;9295;44.484;11.240;2023-11-19T00:30:24;7.33;;;3.77;;
18338;SDS011;9295;44.484;11.240;2023-11-19T00:32:53;10.47;;;4.40;;
18338;SDS011;9295;44.484;11.240;2023-11-19T00:35:21;6.97;;;3.77;;
18338;SDS011;9295;44.484;11.240;2023-11-19T00:37:50;7.67;;;4.00;;
18338;SDS011;9295;44.484;11.240;2023-11-19T00:40:20;11.50;;;3.90;;
18338;SDS011;9295;44.484;11.240;2023-11-19T00:42:50;6.07;;;3.37;;
18338;SDS011;9295;44.484;11.240;2023-11-19T00:45:19;5.20;;;3.00;;
18338;SDS011;9295;44.484;11.240;2023-11-19T00:47:49;9.13;;;3.67;;
18338;SDS011;9295;44.484;11.240;2023-11-19T00:50:17;5.30;;;3.20;;
18338;SDS011;9295;44.484;11.240;2023-11-19T00:52:46;10.40;;;3.27;;
18338;SDS011;9295;44.484;11.240;2023-11-19T00:55:15;5.77;;;3.70;;
18338;SDS011;9295;44.484;11.240;2023-11-19T00:57:43;6.03;;;3.50;;
18338;SDS011;9295;44.484;11.240;2023-11-19T01:00:13;6.53;;;3.50;;
18338;SDS011;9295;44.484;11.240;2023-11-19T01:02:46;5.50;;;3.00;;
18338;SDS011;9295;44.484;11.240;2023-11-19T01:05:18;5.83;;;2.93;;
18338;SDS011;9295;44.484;11.240;2023-11-19T01:07:50;9.60;;;3.07;;
18338;SDS011;9295;44.484;11.240;2023-11-19T01:10:21;5.13;;;2.90;;
18338;SDS011;9295;44.484;11.240;2023-11-19T01:12:51;5.10;;;3.20;;
18338;SDS011;9295;44.484;11.240;2023-11-19T01:15:20;7.30;;;3.50;;
18338;SDS011;9295;44.484;11.240;2023-11-19T01:17:51;4.97;;;2.87;;
18338;SDS011;9295;44.484;11.240;2023-11-19T01:20:20;8.00;;;2.90;;
18338;SDS011;9295;44.484;11.240;2023-11-19T01:22:49;6.03;;;3.03;;
18338;SDS011;9295;44.484;11.240;2023-11-19T01:25:18;4.80;;;3.10;;
18338;SDS011;9295;44.484;11.240;2023-11-19T01:27:47;5.90;;;3.30;;
18338;SDS011;9295;44.484;11.240;2023-11-19T01:30:17;5.40;;;3.13;;
18338;SDS011;9295;44.484;11.240;2023-11-19T01:32:48;6.30;;;3.30;;
18338;SDS011;9295;44.484;11.240;2023-11-19T01:35:18;9.07;;;3.80;;
18338;SDS011;9295;44.484;11.240;2023-11-19T01:37:48;5.10;;;2.80;;
18338;SDS011;9295;44.484;11.240;2023-11-19T01:40:20;4.90;;;3.00;;
18338;SDS011;9295;44.484;11.240;2023-11-19T01:42:49;8.40;;;3.57;;
18338;SDS011;9295;44.484;11.240;2023-11-19T01:45:21;6.83;;;2.90;;
18338;SDS011;9295;44.484;11.240;2023-11-19T01:47:57;7.30;;;3.23;;
18338;SDS011;9295;44.484;11.240;2023-11-19T01:50:30;7.10;;;3.20;;
18338;SDS011;9295;44.484;11.240;2023-11-19T01:53:01;7.07;;;3.10;;
18338;SDS011;9295;44.484;11.240;2023-11-19T01:55:29;5.67;;;2.93;;
18338;SDS011;9295;44.484;11.240;2023-11-19T01:57:59;5.20;;;2.93;;
18338;SDS011;9295;44.484;11.240;2023-11-19T02:00:28;8.77;;;3.10;;
18338;SDS011;9295;44.484;11.240;2023-11-19T02:03:01;6.83;;;3.00;;
18338;SDS011;9295;44.484;11.240;2023-11-19T02:05:31;5.47;;;3.53;;
18338;SDS011;9295;44.484;11.240;2023-11-19T02:08:00;6.00;;;3.20;;
18338;SDS011;9295;44.484;11.240;2023-11-19T02:10:29;9.20;;;4.07;;
18338;SDS011;9295;44.484;11.240;2023-11-19T02:13:00;7.60;;;3.40;;
18338;SDS011;9295;44.484;11.240;2023-11-19T02:15:33;7.57;;;3.87;;
18338;SDS011;9295;44.484;11.240;2023-11-19T02:18:22;6.13;;;3.67;;
18338;SDS011;9295;44.484;11.240;2023-11-19T02:20:55;7.60;;;3.70;;
18338;SDS011;9295;44.484;11.240;2023-11-19T02:23:24;6.33;;;3.00;;
18338;SDS011;9295;44.484;11.240;2023-11-19T02:26:02;7.63;;;4.03;;
18338;SDS011;9295;44.484;11.240;2023-11-19T02:28:38;5.63;;;3.50;;
18338;SDS011;9295;44.484;11.240;2023-11-19T02:31:07;5.57;;;3.30;;
18338;SDS011;9295;44.484;11.240;2023-11-19T02:33:37;6.23;;;3.40;;
18338;SDS011;9295;44.484;11.240;2023-11-19T02:36:06;4.60;;;2.73;;
18338;SDS011;9295;44.484;11.240;2023-11-19T02:38:36;6.07;;;2.80;;
18338;SDS011;9295;44.484;11.240;2023-11-19T02:41:05;5.70;;;3.20;;
18338;SDS011;9295;44.484;11.240;2023-11-19T02:43:36;8.40;;;3.33;;
18338;SDS011;9295;44.484;11.240;2023-11-19T02:46:07;5.53;;;3.07;;
18338;SDS011;9295;44.484;11.240;2023-11-19T02:48:38;13.80;;;3.33;;
18338;SDS011;9295;44.484;11.240;2023-11-19T02:51:07;6.00;;;3.30;;
18338;SDS011;9295;44.484;11.240;2023-11-19T02:53:37;5.60;;;2.90;;
18338;SDS011;9295;44.484;11.240;2023-11-19T02:56:07;4.00;;;2.80;;
18338;SDS011;9295;44.484;11.240;2023-11-19T02:58:48;4.70;;;2.93;;
18338;SDS011;9295;44.484;11.240;2023-11-19T03:01:21;4.87;;;2.80;;
18338;SDS011;9295;44.484;11.240;2023-11-19T03:03:57;5.03;;;3.03;;
18338;SDS011;9295;44.484;11.240;2023-11-19T03:06:29;6.13;;;3.03;;
18338;SDS011;9295;44.484;11.240;2023-11-19T03:08:59;7.73;;;3.43;;
18338;SDS011;9295;44.484;11.240;2023-11-19T03:11:32;6.10;;;3.30;;
18338;SDS011;9295;44.484;11.240;2023-11-19T03:14:03;6.07;;;3.23;;
18338;SDS011;9295;44.484;11.240;2023-11-19T03:16:32;5.40;;;3.10;;
18338;SDS011;9295;44.484;11.240;2023-11-19T03:19:00;5.00;;;3.23;;
18338;SDS011;9295;44.484;11.240;2023-11-19T03:21:31;4.60;;;3.03;;
18338;SDS011;9295;44.484;11.240;2023-11-19T03:24:00;5.97;;;3.13;;
18338;SDS011;9295;44.484;11.240;2023-11-19T03:26:28;4.57;;;2.87;;
18338;SDS011;9295;44.484;11.240;2023-11-19T03:28:57;4.03;;;3.00;;
18338;SDS011;9295;44.484;11.240;2023-11-19T03:31:27;4.43;;;3.10;;
18338;SDS011;9295;44.484;11.240;2023-11-19T03:33:55;6.03;;;3.00;;
18338;SDS011;9295;44.484;11.240;2023-11-19T03:36:25;6.90;;;2.97;;
18338;SDS011;9295;44.484;11.240;2023-11-19T03:39:00;5.80;;;2.60;;
18338;SDS011;9295;44.484;11.240;2023-11-19T03:41:29;4.47;;;2.63;;
18338;SDS011;9295;44.484;11.240;2023-11-19T03:44:01;5.00;;;3.50;;
18338;SDS011;9295;44.484;11.240;2023-11-19T03:46:31;7.70;;;3.03;;
18338;SDS011;9295;44.484;11.240;2023-11-19T03:48:59;6.60;;;3.30;;
18338;SDS011;9295;44.484;11.240;2023-11-19T03:51:28;8.00;;;3.17;;
18338;SDS011;9295;44.484;11.240;2023-11-19T03:53:57;8.63;;;3.20;;
18338;SDS011;9295;44.484;11.240;2023-11-19T03:56:26;5.53;;;2.80;;
18338;SDS011;9295;44.484;11.240;2023-11-19T03:58:54;5.07;;;3.20;;
18338;SDS011;9295;44.484;11.240;2023-11-19T04:01:23;5.67;;;3.00;;
18338;SDS011;9295;44.484;11.240;2023-11-19T04:03:53;4.87;;;3.00;;
18338;SDS011;9295;44.484;11.240;2023-11-19T04:06:23;6.70;;;3.00;;
18338;SDS011;9295;44.484;11.240;2023-11-19T04:08:51;4.67;;;3.10;;
18338;SDS011;9295;44.484;11.240;2023-11-19T04:11:20;7.53;;;3.13;;
18338;SDS011;9295;44.484;11.240;2023-11-19T04:13:48;6.03;;;3.23;;
18338;SDS011;9295;44.484;11.240;2023-11-19T04:16:17;8.30;;;3.47;;
18338;SDS011;9295;44.484;11.240;2023-11-19T04:18:45;5.90;;;3.40;;
18338;SDS011;9295;44.484;11.240;2023-11-19T04:21:15;8.13;;;3.10;;
18338;SDS011;9295;44.484;11.240;2023-11-19T04:23:44;5.23;;;3.13;;
18338;SDS011;9295;44.484;11.240;2023-11-19T04:26:13;5.83;;;3.30;;
18338;SDS011;9295;44.484;11.240;2023-11-19T04:28:42;5.43;;;3.20;;
18338;SDS011;9295;44.484;11.240;2023-11-19T04:31:11;4.90;;;3.07;;
18338;SDS011;9295;44.484;11.240;2023-11-19T04:33:39;7.00;;;3.30;;
18338;SDS011;9295;44.484;11.240;2023-11-19T04:36:08;5.37;;;3.00;;
18338;SDS011;9295;44.484;11.240;2023-11-19T04:38:39;10.07;;;3.23;;
18338;SDS011;9295;44.484;11.240;2023-11-19T04:41:08;5.40;;;3.70;;
18338;SDS011;9295;44.484;11.240;2023-11-19T04:43:36;6.20;;;3.40;;
18338;SDS011;9295;44.484;11.240;2023-11-19T04:46:05;8.90;;;3.60;;
18338;SDS011;9295;44.484;11.240;2023-11-19T04:48:34;6.50;;;3.30;;
18338;SDS011;9295;44.484;11.240;2023-11-19T04:51:05;6.87;;;3.10;;
18338;SDS011;9295;44.484;11.240;2023-11-19T04:53:36;5.57;;;3.50;;
18338;SDS011;9295;44.484;11.240;2023-11-19T04:56:09;5.63;;;3.30;;
18338;SDS011;9295;44.484;11.240;2023-11-19T04:58:38;6.60;;;3.33;;
18338;SDS011;9295;44.484;11.240;2023-11-19T05:01:12;5.23;;;3.20;;
18338;SDS011;9295;44.484;11.240;2023-11-19T05:03:43;9.80;;;3.80;;
18338;SDS011;9295;44.484;11.240;2023-11-19T05:06:12;4.77;;;3.00;;
18338;SDS011;9295;44.484;11.240;2023-11-19T05:08:42;7.13;;;2.83;;
18338;SDS011;9295;44.484;11.240;2023-11-19T05:11:12;4.50;;;2.97;;
18338;SDS011;9295;44.484;11.240;2023-11-19T05:13:44;5.40;;;3.00;;
18338;SDS011;9295;44.484;11.240;2023-11-19T05:16:13;7.70;;;3.03;;
18338;SDS011;9295;44.484;11.240;2023-11-19T05:18:42;5.77;;;2.97;;
18338;SDS011;9295;44.484;11.240;2023-11-19T05:21:11;4.97;;;2.80;;
18338;SDS011;9295;44.484;11.240;2023-11-19T05:23:39;5.50;;;3.10;;
18338;SDS011;9295;44.484;11.240;2023-11-19T05:26:08;6.17;;;2.93;;
18338;SDS011;9295;44.484;11.240;2023-11-19T05:28:39;5.27;;;2.63;;
18338;SDS011;9295;44.484;11.240;2023-11-19T05:31:07;4.93;;;2.73;;
18338;SDS011;9295;44.484;11.240;2023-11-19T05:33:36;6.97;;;2.77;;
18338;SDS011;9295;44.484;11.240;2023-11-19T05:36:05;7.67;;;3.17;;
18338;SDS011;9295;44.484;11.240;2023-11-19T05:38:35;7.70;;;3.17;;
18338;SDS011;9295;44.484;11.240;2023-11-19T05:41:04;6.83;;;3.40;;
18338;SDS011;9295;44.484;11.240;2023-11-19T05:43:33;5.50;;;2.80;;
18338;SDS011;9295;44.484;11.240;2023-11-19T05:46:04;6.40;;;2.90;;
18338;SDS011;9295;44.484;11.240;2023-11-19T05:48:46;9.40;;;3.77;;
18338;SDS011;9295;44.484;11.240;2023-11-19T05:51:15;6.63;;;3.30;;
18338;SDS011;9295;44.484;11.240;2023-11-19T05:53:43;6.70;;;4.00;;
18338;SDS011;9295;44.484;11.240;2023-11-19T05:56:13;6.93;;;3.40;;
18338;SDS011;9295;44.484;11.240;2023-11-19T05:58:42;6.30;;;3.47;;
18338;SDS011;9295;44.484;11.240;2023-11-19T06:01:13;8.43;;;3.27;;
18338;SDS011;9295;44.484;11.240;2023-11-19T06:03:42;5.43;;;2.90;;
18338;SDS011;9295;44.484;11.240;2023-11-19T06:06:14;4.80;;;3.03;;
18338;SDS011;9295;44.484;11.240;2023-11-19T06:08:43;4.20;;;2.80;;
18338;SDS011;9295;44.484;11.240;2023-11-19T06:11:11;4.50;;;2.60;;
18338;SDS011;9295;44.484;11.240;2023-11-19T06:13:44;11.03;;;3.20;;
18338;SDS011;9295;44.484;11.240;2023-11-19T06:16:15;4.60;;;2.63;;
18338;SDS011;9295;44.484;11.240;2023-11-19T06:18:43;5.53;;;3.20;;
18338;SDS011;9295;44.484;11.240;2023-11-19T06:21:12;6.63;;;3.40;;
18338;SDS011;9295;44.484;11.240;2023-11-19T06:23:41;7.17;;;3.07;;
18338;SDS011;9295;44.484;11.240;2023-11-19T06:26:10;15.93;;;2.90;;
18338;SDS011;9295;44.484;11.240;2023-11-19T06:28:38;3.70;;;2.67;;
18338;SDS011;9295;44.484;11.240;2023-11-19T06:31:07;5.00;;;2.80;;
18338;SDS011;9295;44.484;11.240;2023-11-19T06:33:37;5.40;;;2.87;;
18338;SDS011;9295;44.484;11.240;2023-11-19T06:36:06;6.27;;;3.00;;
18338;SDS011;9295;44.484;11.240;2023-11-19T06:38:35;4.50;;;2.87;;
18338;SDS011;9295;44.484;11.240;2023-11-19T06:41:06;4.60;;;2.67;;
18338;SDS011;9295;44.484;11.240;2023-11-19T06:43:36;4.77;;;3.00;;
18338;SDS011;9295;44.484;11.240;2023-11-19T06:46:14;5.37;;;3.13;;
18338;SDS011;9295;44.484;11.240;2023-11-19T06:48:44;5.27;;;2.90;;
18338;SDS011;9295;44.484;11.240;2023-11-19T06:51:13;5.37;;;3.07;;
18338;SDS011;9295;44.484;11.240;2023-11-19T06:53:42;4.70;;;2.50;;
18338;SDS011;9295;44.484;11.240;2023-11-19T06:56:19;7.03;;;3.00;;
18338;SDS011;9295;44.484;11.240;2023-11-19T06:58:48;5.33;;;2.73;;
18338;SDS011;9295;44.484;11.240;2023-11-19T07:01:17;3.70;;;2.20;;
18338;SDS011;9295;44.484;11.240;2023-11-19T07:03:48;5.33;;;2.40;;
18338;SDS011;9295;44.484;11.240;2023-11-19T07:06:18;7.90;;;2.27;;
18338;SDS011;9295;44.484;11.240;2023-11-19T07:08:59;5.57;;;2.87;;
18338;SDS011;9295;44.484;11.240;2023-11-19T07:11:35;4.03;;;2.40;;
18338;SDS011;9295;44.484;11.240;2023-11-19T07:14:05;4.20;;;2.13;;
18338;SDS011;9295;44.484;11.240;2023-11-19T07:16:35;3.40;;;2.00;;
18338;SDS011;9295;44.484;11.240;2023-11-19T07:19:06;8.30;;;3.63;;
18338;SDS011;9295;44.484;11.240;2023-11-19T07:21:35;6.87;;;3.57;;
18338;SDS011;9295;44.484;11.240;2023-11-19T07:24:06;5.47;;;2.90;;
18338;SDS011;9295;44.484;11.240;2023-11-19T07:26:35;4.60;;;2.80;;
18338;SDS011;9295;44.484;11.240;2023-11-19T07:29:04;4.60;;;2.70;;
18338;SDS011;9295;44.484;11.240;2023-11-19T07:31:34;4.83;;;2.80;;
18338;SDS011;9295;44.484;11.240;2023-11-19T07:34:03;8.00;;;3.90;;
18338;SDS011;9295;44.484;11.240;2023-11-19T07:36:34;7.87;;;4.23;;
18338;SDS011;9295;44.484;11.240;2023-11-19T07:39:04;8.83;;;4.60;;
18338;SDS011;9295;44.484;11.240;2023-11-19T07:41:33;7.17;;;3.90;;
18338;SDS011;9295;44.484;11.240;2023-11-19T07:44:04;7.70;;;4.57;;
18338;SDS011;9295;44.484;11.240;2023-11-19T07:46:33;4.93;;;3.20;;
18338;SDS011;9295;44.484;11.240;2023-11-19T07:49:02;7.37;;;3.90;;
18338;SDS011;9295;44.484;11.240;2023-11-19T07:51:30;4.93;;;3.10;;
18338;SDS011;9295;44.484;11.240;2023-11-19T07:54:00;6.20;;;3.23;;
18338;SDS011;9295;44.484;11.240;2023-11-19T07:56:29;6.03;;;3.10;;
18338;SDS011;9295;44.484;11.240;2023-11-19T07:58:57;5.77;;;3.60;;
18338;SDS011;9295;44.484;11.240;2023-11-19T08:01:26;6.83;;;3.80;;
18338;SDS011;9295;44.484;11.240;2023-11-19T08:03:54;8.77;;;4.03;;
18338;SDS011;9295;44.484;11.240;2023-11-19T08:06:25;8.13;;;3.77;;
18338;SDS011;9295;44.484;11.240;2023-11-19T08:08:54;10.03;;;3.43;;
18338;SDS011;9295;44.484;11.240;2023-11-19T08:11:24;5.10;;;3.47;;
18338;SDS011;9295;44.484;11.240;2023-11-19T08:13:53;9.30;;;3.23;;
18338;SDS011;9295;44.484;11.240;2023-11-19T08:16:23;6.43;;;4.33;;
18338;SDS011;9295;44.484;11.240;2023-11-19T08:18:51;7.90;;;4.47;;
18338;SDS011;9295;44.484;11.240;2023-11-19T08:21:20;10.80;;;4.07;;
18338;SDS011;9295;44.484;11.240;2023-11-19T08:23:49;11.30;;;4.10;;
18338;SDS011;9295;44.484;11.240;2023-11-19T08:26:18;7.10;;;4.17;;
18338;SDS011;9295;44.484;11.240;2023-11-19T08:28:49;6.50;;;3.70;;
18338;SDS011;9295;44.484;11.240;2023-11-19T08:31:18;8.00;;;4.37;;
18338;SDS011;9295;44.484;11.240;2023-11-19T08:33:47;10.33;;;4.70;;
18338;SDS011;9295;44.484;11.240;2023-11-19T08:36:15;5.97;;;3.73;;
18338;SDS011;9295;44.484;11.240;2023-11-19T08:38:44;6.00;;;3.30;;
18338;SDS011;9295;44.484;11.240;2023-11-19T08:41:13;6.80;;;3.87;;
18338;SDS011;9295;44.484;11.240;2023-11-19T08:43:44;9.03;;;4.60;;
18338;SDS011;9295;44.484;11.240;2023-11-19T08:46:15;8.60;;;5.53;;
18338;SDS011;9295;44.484;11.240;2023-11-19T08:48:43;5.60;;;3.57;;
18338;SDS011;9295;44.484;11.240;2023-11-19T08:51:12;7.60;;;4.30;;
18338;SDS011;9295;44.484;11.240;2023-11-19T08:53:41;8.57;;;5.53;;
18338;SDS011;9295;44.484;11.240;2023-11-19T08:56:09;10.67;;;6.70;;
18338;SDS011;9295;44.484;11.240;2023-11-19T08:58:38;8.50;;;5.73;;
18338;SDS011;9295;44.484;11.240;2023-11-19T09:01:07;9.07;;;4.13;;
18338;SDS011;9295;44.484;11.240;2023-11-19T09:03:38;5.03;;;3.27;;
18338;SDS011;9295;44.484;11.240;2023-11-19T09:06:07;7.00;;;4.23;;
18338;SDS011;9295;44.484;11.240;2023-11-19T09:08:36;9.57;;;4.27;;
18338;SDS011;9295;44.484;11.240;2023-11-19T09:11:08;10.83;;;3.90;;
18338;SDS011;9295;44.484;11.240;2023-11-19T09:13:37;9.50;;;4.90;;
18338;SDS011;9295;44.484;11.240;2023-11-19T09:16:05;6.83;;;3.30;;
18338;SDS011;9295;44.484;11.240;2023-11-19T09:18:35;6.30;;;3.50;;
18338;SDS011;9295;44.484;11.240;2023-11-19T09:21:05;6.43;;;3.90;;
18338;SDS011;9295;44.484;11.240;2023-11-19T09:23:34;7.10;;;5.20;;
18338;SDS011;9295;44.484;11.240;2023-11-19T09:26:06;6.77;;;4.10;;
18338;SDS011;9295;44.484;11.240;2023-11-19T09:28:36;9.73;;;4.17;;
18338;SDS011;9295;44.484;11.240;2023-11-19T09:31:12;5.83;;;3.80;;
18338;SDS011;9295;44.484;11.240;2023-11-19T09:33:43;8.90;;;4.20;;
18338;SDS011;9295;44.484;11.240;2023-11-19T09:36:12;8.90;;;4.10;;
18338;SDS011;9295;44.484;11.240;2023-11-19T09:38:43;6.30;;;4.37;;
18338;SDS011;9295;44.484;11.240;2023-11-19T09:41:12;7.07;;;4.20;;
18338;SDS011;9295;44.484;11.240;2023-11-19T09:43:41;7.80;;;5.00;;
18338;SDS011;9295;44.484;11.240;2023-11-19T09:46:10;5.50;;;4.30;;
18338;SDS011;9295;44.484;11.240;2023-11-19T09:48:40;7.70;;;4.90;;
18338;SDS011;9295;44.484;11.240;2023-11-19T09:51:11;6.43;;;4.43;;
18338;SDS011;9295;44.484;11.240;2023-11-19T09:53:39;6.97;;;4.93;;
18338;SDS011;9295;44.484;11.240;2023-11-19T09:56:09;8.93;;;4.43;;
18338;SDS011;9295;44.484;11.240;2023-11-19T09:58:41;7.93;;;5.30;;
18338;SDS011;9295;44.484;11.240;2023-11-19T10:01:11;10.13;;;5.53;;
18338;SDS011;9295;44.484;11.240;2023-11-19T10:03:44;9.00;;;5.70;;
18338;SDS011;9295;44.484;11.240;2023-11-19T10:06:16;10.17;;;6.43;;
18338;SDS011;9295;44.484;11.240;2023-11-19T10:08:46;13.50;;;6.30;;
18338;SDS011;9295;44.484;11.240;2023-11-19T10:11:14;11.40;;;5.40;;
18338;SDS011;9295;44.484;11.240;2023-11-19T10:13:43;9.23;;;4.97;;
18338;SDS011;9295;44.484;11.240;2023-11-19T10:16:14;8.90;;;5.07;;
18338;SDS011;9295;44.484;11.240;2023-11-19T10:18:46;7.57;;;4.70;;
18338;SDS011;9295;44.484;11.240;2023-11-19T10:21:17;8.47;;;5.60;;
18338;SDS011;9295;44.484;11.240;2023-11-19T10:23:49;10.67;;;5.83;;
18338;SDS011;9295;44.484;11.240;2023-11-19T10:26:19;8.43;;;5.47;;
18338;SDS011;9295;44.484;11.240;2023-11-19T10:28:48;13.10;;;6.03;;
18338;SDS011;9295;44.484;11.240;2023-11-19T10:31:17;11.37;;;6.00;;
18338;SDS011;9295;44.484;11.240;2023-11-19T10:33:51;9.70;;;6.13;;
18338;SDS011;9295;44.484;11.240;2023-11-19T10:36:20;9.10;;;5.30;;
18338;SDS011;9295;44.484;11.240;2023-11-19T10:38:51;10.50;;;5.73;;
18338;SDS011;9295;44.484;11.240;2023-11-19T10:41:27;8.77;;;6.00;;
18338;SDS011;9295;44.484;11.240;2023-11-19T10:43:56;9.63;;;5.97;;
18338;SDS011;9295;44.484;11.240;2023-11-19T10:46:36;12.80;;;6.63;;
18338;SDS011;9295;44.484;11.240;2023-11-19T10:49:08;9.47;;;6.50;;
18338;SDS011;9295;44.484;11.240;2023-11-19T10:51:38;11.00;;;6.17;;
18338;SDS011;9295;44.484;11.240;2023-11-19T10:54:13;10.40;;;5.60;;
18338;SDS011;9295;44.484;11.240;2023-11-19T10:56:45;11.13;;;6.30;;
18338;SDS011;9295;44.484;11.240;2023-11-19T10:59:22;10.03;;;5.90;;
18338;SDS011;9295;44.484;11.240;2023-11-19T11:01:57;10.20;;;5.87;;
18338;SDS011;9295;44.484;11.240;2023-11-19T11:04:29;9.70;;;6.00;;
18338;SDS011;9295;44.484;11.240;2023-11-19T11:07:01;8.13;;;5.20;;
18338;SDS011;9295;44.484;11.240;2023-11-19T11:09:30;10.37;;;5.20;;
18338;SDS011;9295;44.484;11.240;2023-11-19T11:12:00;8.57;;;5.30;;
18338;SDS011;9295;44.484;11.240;2023-11-19T11:14:30;8.43;;;4.70;;
18338;SDS011;9295;44.484;11.240;2023-11-19T11:17:02;11.77;;;4.50;;
18338;SDS011;9295;44.484;11.240;2023-11-19T11:19:35;9.17;;;5.93;;
18338;SDS011;9295;44.484;11.240;2023-11-19T11:22:04;8.10;;;5.00;;
18338;SDS011;9295;44.484;11.240;2023-11-19T11:24:41;8.73;;;5.77;;
18338;SDS011;9295;44.484;11.240;2023-11-19T11:30:28;11.93;;;7.50;;
18338;SDS011;9295;44.484;11.240;2023-11-19T11:33:10;12.40;;;6.23;;
18338;SDS011;9295;44.484;11.240;2023-11-19T11:36:03;8.07;;;5.03;;
18338;SDS011;9295;44.484;11.240;2023-11-19T11:38:41;7.73;;;4.80;;
18338;SDS011;9295;44.484;11.240;2023-11-19T11:41:19;9.83;;;6.43;;
18338;SDS011;9295;44.484;11.240;2023-11-19T11:43:54;7.80;;;5.47;;
18338;SDS011;9295;44.484;11.240;2023-11-19T11:49:26;9.67;;;5.80;;
18338;SDS011;9295;44.484;11.240;2023-11-19T11:52:01;19.30;;;6.40;;
18338;SDS011;9295;44.484;11.240;2023-11-19T11:54:33;10.03;;;6.30;;
18338;SDS011;9295;44.484;11.240;2023-11-19T11:57:03;18.77;;;10.50;;
18338;SDS011;9295;44.484;11.240;2023-11-19T11:59:37;12.47;;;6.20;;
18338;SDS011;9295;44.484;11.240;2023-11-19T12:02:11;11.10;;;6.93;;
18338;SDS011;9295;44.484;11.240;2023-11-19T12:04:41;10.37;;;5.77;;
18338;SDS011;9295;44.484;11.240;2023-11-19T12:07:13;10.70;;;4.97;;
18338;SDS011;9295;44.484;11.240;2023-11-19T12:09:46;10.00;;;5.30;;
18338;SDS011;9295;44.484;11.240;2023-11-19T12:12:22;9.97;;;5.30;;
18338;SDS011;9295;44.484;11.240;2023-11-19T12:15:04;8.27;;;5.57;;
18338;SDS011;9295;44.484;11.240;2023-11-19T12:17:43;10.70;;;7.03;;
18338;SDS011;9295;44.484;11.240;2023-11-19T12:20:18;21.10;;;11.43;;
18338;SDS011;9295;44.484;11.240;2023-11-19T12:22:52;16.43;;;7.97;;
18338;SDS011;9295;44.484;11.240;2023-11-19T12:25:21;27.57;;;18.37;;
18338;SDS011;9295;44.484;11.240;2023-11-19T12:27:50;15.67;;;10.77;;
18338;SDS011;9295;44.484;11.240;2023-11-19T12:30:21;21.20;;;12.53;;
18338;SDS011;9295;44.484;11.240;2023-11-19T12:32:51;14.00;;;7.67;;
18338;SDS011;9295;44.484;11.240;2023-11-19T12:35:21;7.83;;;5.27;;
18338;SDS011;9295;44.484;11.240;2023-11-19T12:37:52;8.63;;;6.00;;
18338;SDS011;9295;44.484;11.240;2023-11-19T12:40:21;8.97;;;5.63;;
18338;SDS011;9295;44.484;11.240;2023-11-19T12:42:51;9.73;;;5.30;;
18338;SDS011;9295;44.484;11.240;2023-11-19T12:45:21;7.13;;;4.83;;
18338;SDS011;9295;44.484;11.240;2023-11-19T12:47:57;8.90;;;5.37;;
18338;SDS011;9295;44.484;11.240;2023-11-19T12:53:21;7.80;;;5.20;;
18338;SDS011;9295;44.484;11.240;2023-11-19T12:55:50;9.63;;;5.60;;
18338;SDS011;9295;44.484;11.240;2023-11-19T12:58:29;12.50;;;5.30;;
18338;SDS011;9295;44.484;11.240;2023-11-19T13:01:02;8.03;;;5.10;;
18338;SDS011;9295;44.484;11.240;2023-11-19T13:03:32;8.07;;;4.87;;
18338;SDS011;9295;44.484;11.240;2023-11-19T13:06:02;6.70;;;4.50;;
18338;SDS011;9295;44.484;11.240;2023-11-19T13:08:40;9.00;;;5.30;;
18338;SDS011;9295;44.484;11.240;2023-11-19T13:11:11;11.73;;;6.20;;
18338;SDS011;9295;44.484;11.240;2023-11-19T13:13:55;11.33;;;5.80;;
18338;SDS011;9295;44.484;11.240;2023-11-19T13:16:26;9.40;;;5.60;;
18338;SDS011;9295;44.484;11.240;2023-11-19T13:18:56;14.37;;;5.83;;
18338;SDS011;9295;44.484;11.240;2023-11-19T13:21:27;7.33;;;4.47;;
18338;SDS011;9295;44.484;11.240;2023-11-19T13:23:57;9.90;;;5.00;;
18338;SDS011;9295;44.484;11.240;2023-11-19T13:26:26;10.50;;;5.50;;
18338;SDS011;9295;44.484;11.240;2023-11-19T13:28:54;22.63;;;5.60;;
18338;SDS011;9295;44.484;11.240;2023-11-19T13:31:23;12.50;;;6.87;;
18338;SDS011;9295;44.484;11.240;2023-11-19T13:33:52;17.20;;;7.53;;
18338;SDS011;9295;44.484;11.240;2023-11-19T13:36:21;13.70;;;5.50;;
18338;SDS011;9295;44.484;11.240;2023-11-19T13:38:49;9.80;;;5.30;;
18338;SDS011;9295;44.484;11.240;2023-11-19T13:41:19;10.07;;;5.70;;
18338;SDS011;9295;44.484;11.240;2023-11-19T13:43:48;8.10;;;4.80;;
18338;SDS011;9295;44.484;11.240;2023-11-19T13:46:17;7.57;;;4.40;;
18338;SDS011;9295;44.484;11.240;2023-11-19T13:48:45;8.07;;;4.97;;
18338;SDS011;9295;44.484;11.240;2023-11-19T13:51:16;7.87;;;4.10;;
18338;SDS011;9295;44.484;11.240;2023-11-19T13:53:44;11.00;;;4.60;;
18338;SDS011;9295;44.484;11.240;2023-11-19T13:56:16;11.17;;;4.93;;
18338;SDS011;9295;44.484;11.240;2023-11-19T13:58:46;7.43;;;5.07;;
18338;SDS011;9295;44.484;11.240;2023-11-19T14:01:15;8.80;;;5.27;;
18338;SDS011;9295;44.484;11.240;2023-11-19T14:03:43;9.57;;;5.47;;
18338;SDS011;9295;44.484;11.240;2023-11-19T14:06:12;13.73;;;4.70;;
18338;SDS011;9295;44.484;11.240;2023-11-19T14:08:41;11.00;;;5.10;;
18338;SDS011;9295;44.484;11.240;2023-11-19T14:11:09;9.73;;;5.17;;
18338;SDS011;9295;44.484;11.240;2023-11-19T14:13:38;8.63;;;5.47;;
18338;SDS011;9295;44.484;11.240;2023-11-19T14:16:08;13.40;;;6.30;;
18338;SDS011;9295;44.484;11.240;2023-11-19T14:18:39;12.90;;;6.00;;
18338;SDS011;9295;44.484;11.240;2023-11-19T14:21:08;11.93;;;6.00;;
18338;SDS011;9295;44.484;11.240;2023-11-19T14:23:36;8.63;;;4.83;;
18338;SDS011;9295;44.484;11.240;2023-11-19T14:26:05;9.97;;;5.47;;
18338;SDS011;9295;44.484;11.240;2023-11-19T14:28:34;9.60;;;5.30;;
18338;SDS011;9295;44.484;11.240;2023-11-19T14:31:21;12.27;;;5.77;;
18338;SDS011;9295;44.484;11.240;2023-11-19T14:33:50;10.90;;;5.43;;
18338;SDS011;9295;44.484;11.240;2023-11-19T14:36:22;8.30;;;5.30;;
18338;SDS011;9295;44.484;11.240;2023-11-19T14:38:50;10.90;;;5.27;;
18338;SDS011;9295;44.484;11.240;2023-11-19T14:41:19;9.40;;;5.03;;
18338;SDS011;9295;44.484;11.240;2023-11-19T14:43:47;8.33;;;5.00;;
18338;SDS011;9295;44.484;11.240;2023-11-19T14:46:16;8.70;;;5.40;;
18338;SDS011;9295;44.484;11.240;2023-11-19T14:48:46;12.13;;;6.17;;
18338;SDS011;9295;44.484;11.240;2023-11-19T14:51:14;8.40;;;4.77;;
18338;SDS011;9295;44.484;11.240;2023-11-19T14:53:43;8.17;;;4.77;;
18338;SDS011;9295;44.484;11.240;2023-11-19T14:56:12;11.57;;;5.43;;
18338;SDS011;9295;44.484;11.240;2023-11-19T14:58:40;8.70;;;5.40;;
18338;SDS011;9295;44.484;11.240;2023-11-19T15:01:11;8.57;;;5.30;;
18338;SDS011;9295;44.484;11.240;2023-11-19T15:03:40;8.77;;;5.57;;
18338;SDS011;9295;44.484;11.240;2023-11-19T15:06:13;15.50;;;5.83;;
18338;SDS011;9295;44.484;11.240;2023-11-19T15:08:42;10.40;;;4.93;;
18338;SDS011;9295;44.484;11.240;2023-11-19T15:11:11;9.90;;;5.70;;
18338;SDS011;9295;44.484;11.240;2023-11-19T15:13:40;10.20;;;5.63;;